createdAt,value
2018-12-19T00:00:27.434Z,20.57
2018-12-19T00:03:02.921Z,18.63
2018-12-19T00:05:38.602Z,20.27
2018-12-19T00:08:14.010Z,20.93
2018-12-19T00:10:47.521Z,19.63
2018-12-19T00:13:20.901Z,17.63
2018-12-19T00:15:54.373Z,18.57
2018-12-19T00:18:27.897Z,21.77
2018-12-19T00:21:01.496Z,20.43
2018-12-19T00:23:34.995Z,17.90
2018-12-19T00:26:08.697Z,20.80
2018-12-19T00:28:44.245Z,19.87
2018-12-19T00:31:19.498Z,20.20
2018-12-19T00:33:54.997Z,20.10
2018-12-19T00:36:28.456Z,18.70
2018-12-19T00:39:09.522Z,21.70
2018-12-19T00:41:42.061Z,20.37
2018-12-19T00:44:16.661Z,20.57
2018-12-19T00:46:50.134Z,19.05
2018-12-19T00:49:23.591Z,18.67
2018-12-19T00:51:57.277Z,21.47
2018-12-19T00:54:30.830Z,18.40
2018-12-19T00:57:04.309Z,18.50
2018-12-19T00:59:37.906Z,19.67
2018-12-19T01:02:11.629Z,19.07
2018-12-19T01:04:48.228Z,19.83
2018-12-19T01:07:21.711Z,20.73
2018-12-19T01:09:55.313Z,23.17
2018-12-19T01:12:28.815Z,18.13
2018-12-19T01:15:02.362Z,20.13
2018-12-19T01:17:35.741Z,23.30
2018-12-19T01:20:09.357Z,21.87
2018-12-19T01:22:42.858Z,18.10
2018-12-19T01:25:16.411Z,20.30
2018-12-19T01:27:49.885Z,19.73
2018-12-19T01:30:23.351Z,22.53
2018-12-19T01:32:56.784Z,21.07
2018-12-19T01:35:30.484Z,20.77
2018-12-19T01:38:03.906Z,21.70
2018-12-19T01:40:37.239Z,21.03
2018-12-19T01:43:10.774Z,20.10
2018-12-19T01:45:44.337Z,22.70
2018-12-19T01:48:17.637Z,20.47
2018-12-19T01:50:51.066Z,24.37
2018-12-19T01:53:24.623Z,21.60
2018-12-19T01:55:58.367Z,24.13
2018-12-19T01:58:31.814Z,22.93
2018-12-19T02:01:05.420Z,25.43
2018-12-19T02:03:38.741Z,23.80
2018-12-19T02:06:12.189Z,23.03
2018-12-19T02:08:45.853Z,23.77
2018-12-19T02:11:20.567Z,24.27
2018-12-19T02:13:53.978Z,21.73
2018-12-19T02:16:27.655Z,22.33
2018-12-19T02:19:00.961Z,22.47
2018-12-19T02:21:34.370Z,24.57
2018-12-19T02:24:07.813Z,23.60
2018-12-19T02:26:41.747Z,23.57
2018-12-19T02:29:15.205Z,24.03
2018-12-19T02:31:48.712Z,22.13
2018-12-19T02:34:22.155Z,25.43
2018-12-19T02:36:55.608Z,25.37
2018-12-19T02:39:35.962Z,20.60
2018-12-19T02:42:04.202Z,23.00
2018-12-19T02:44:37.565Z,21.17
2018-12-19T02:47:11.002Z,23.60
2018-12-19T02:49:44.456Z,26.63
2018-12-19T02:52:17.734Z,20.47
2018-12-19T02:54:51.081Z,20.83
2018-12-19T02:57:24.688Z,23.20
2018-12-19T02:59:58.157Z,26.63
2018-12-19T03:02:31.667Z,24.13
2018-12-19T03:05:05.282Z,20.03
2018-12-19T03:07:38.702Z,20.50
2018-12-19T03:10:12.202Z,23.37
2018-12-19T03:12:45.572Z,22.20
2018-12-19T03:15:19.003Z,25.67
2018-12-19T03:17:52.688Z,22.07
2018-12-19T03:20:26.308Z,21.50
2018-12-19T03:23:00.004Z,24.10
2018-12-19T03:25:33.428Z,20.23
2018-12-19T03:28:07.044Z,22.40
2018-12-19T03:30:40.508Z,21.87
2018-12-19T03:33:15.510Z,20.33
2018-12-19T03:35:49.047Z,24.40
2018-12-19T03:38:23.359Z,21.97
2018-12-19T03:40:56.838Z,23.53
2018-12-19T03:43:30.590Z,24.13
2018-12-19T03:46:04.132Z,19.20
2018-12-19T03:48:43.385Z,21.27
2018-12-19T03:51:16.986Z,20.10
2018-12-19T03:53:50.560Z,21.07
2018-12-19T03:56:23.860Z,20.47
2018-12-19T03:58:57.491Z,23.10
2018-12-19T04:01:30.902Z,21.20
2018-12-19T04:04:04.394Z,21.57
2018-12-19T04:06:38.067Z,25.23
2018-12-19T04:09:11.359Z,23.03
2018-12-19T04:11:44.871Z,22.20
2018-12-19T04:14:18.297Z,20.87
2018-12-19T04:16:51.765Z,20.50
2018-12-19T04:19:25.163Z,20.57
2018-12-19T04:22:00.662Z,24.17
2018-12-19T04:24:34.338Z,21.10
2018-12-19T04:27:07.703Z,21.50
2018-12-19T04:29:41.430Z,18.73
2018-12-19T04:32:14.925Z,22.97
2018-12-19T04:34:48.269Z,22.50
2018-12-19T04:37:21.549Z,20.73
2018-12-19T04:39:55.100Z,22.27
2018-12-19T04:42:28.691Z,21.70
2018-12-19T04:45:02.234Z,18.77
2018-12-19T04:47:35.807Z,19.80
2018-12-19T04:50:09.717Z,20.63
2018-12-19T04:52:43.234Z,21.90
2018-12-19T04:55:16.817Z,17.27
2018-12-19T04:57:50.283Z,15.90
2018-12-19T05:00:23.565Z,20.73
2018-12-19T05:02:57.023Z,20.57
2018-12-19T05:05:30.453Z,20.17
2018-12-19T05:08:04.054Z,18.90
2018-12-19T05:10:37.480Z,19.93
2018-12-19T05:13:10.996Z,19.73
2018-12-19T05:15:44.518Z,20.25
2018-12-19T05:18:17.936Z,18.33
2018-12-19T05:20:52.126Z,19.50
2018-12-19T05:23:25.745Z,19.27
2018-12-19T05:25:59.074Z,21.33
2018-12-19T05:28:32.517Z,17.27
2018-12-19T05:31:06.054Z,20.20
2018-12-19T05:33:39.393Z,18.13
2018-12-19T05:36:12.976Z,20.07
2018-12-19T05:38:46.541Z,18.57
2018-12-19T05:41:19.863Z,18.10
2018-12-19T05:43:53.237Z,17.17
2018-12-19T05:46:27.740Z,17.27
2018-12-19T05:49:01.286Z,16.87
2018-12-19T05:51:34.869Z,19.73
2018-12-19T05:54:08.362Z,18.53
2018-12-19T05:56:41.682Z,17.10
2018-12-19T05:59:15.253Z,17.77
2018-12-19T06:01:48.707Z,18.47
2018-12-19T06:04:24.194Z,18.70
2018-12-19T06:06:57.506Z,17.73
2018-12-19T06:09:30.756Z,17.70
2018-12-19T06:12:04.204Z,17.53
2018-12-19T06:14:37.793Z,18.13
2018-12-19T06:17:11.439Z,16.63
2018-12-19T06:19:44.924Z,17.63
2018-12-19T06:22:19.715Z,17.43
2018-12-19T06:24:53.367Z,17.23
2018-12-19T06:27:26.721Z,19.03
2018-12-19T06:30:00.234Z,16.93
2018-12-19T06:32:33.652Z,18.17
2018-12-19T06:35:07.078Z,18.93
2018-12-19T06:37:40.730Z,16.40
2018-12-19T06:40:13.985Z,17.20
2018-12-19T06:42:47.435Z,17.63
2018-12-19T06:45:20.869Z,15.67
2018-12-19T06:47:54.314Z,14.27
2018-12-19T06:50:29.030Z,16.93
2018-12-19T06:53:02.370Z,16.00
2018-12-19T06:55:35.742Z,15.43
2018-12-19T06:58:09.180Z,17.47
2018-12-19T07:00:42.896Z,15.97
2018-12-19T07:03:16.351Z,16.13
2018-12-19T07:05:49.974Z,15.60
2018-12-19T07:08:23.335Z,17.13
2018-12-19T07:10:56.855Z,16.37
2018-12-19T07:13:30.345Z,18.80
2018-12-19T07:16:04.036Z,16.60
2018-12-19T07:18:37.473Z,15.15
2018-12-19T07:21:11.133Z,17.03
2018-12-19T07:23:44.769Z,17.17
2018-12-19T07:26:18.430Z,17.40
2018-12-19T07:28:52.036Z,16.60
2018-12-19T07:31:25.393Z,17.00
2018-12-19T07:33:58.875Z,16.07
2018-12-19T07:36:32.359Z,16.73
2018-12-19T07:39:07.396Z,15.87
2018-12-19T07:41:41.026Z,19.00
2018-12-19T07:44:14.816Z,15.07
2018-12-19T07:46:48.516Z,18.53
2018-12-19T07:49:21.877Z,17.40
2018-12-19T07:51:55.478Z,16.83
2018-12-19T07:54:29.112Z,21.43
2018-12-19T07:57:02.511Z,15.53
2018-12-19T07:59:35.860Z,17.00
2018-12-19T08:02:09.574Z,19.53
2018-12-19T08:04:43.217Z,17.60
2018-12-19T08:07:16.893Z,16.53
2018-12-19T08:09:50.226Z,17.93
2018-12-19T08:12:23.597Z,15.67
2018-12-19T08:15:02.297Z,14.90
2018-12-19T08:17:35.723Z,19.63
2018-12-19T08:20:10.419Z,18.00
2018-12-19T08:22:43.879Z,18.27
2018-12-19T08:25:17.457Z,16.93
2018-12-19T08:27:51.977Z,19.87
2018-12-19T08:30:25.663Z,16.50
2018-12-19T08:32:59.480Z,20.40
2018-12-19T08:35:32.932Z,16.85
2018-12-19T08:38:06.407Z,19.00
2018-12-19T08:40:39.972Z,17.87
2018-12-19T08:43:13.724Z,19.87
2018-12-19T08:45:48.006Z,18.20
2018-12-19T08:48:21.460Z,18.33
2018-12-19T08:50:55.126Z,17.03
2018-12-19T08:53:28.767Z,16.10
2018-12-19T08:56:02.641Z,20.03
2018-12-19T08:58:36.132Z,16.30
2018-12-19T09:01:09.598Z,18.13
2018-12-19T09:03:43.206Z,18.37
2018-12-19T09:06:16.662Z,18.40
2018-12-19T09:08:49.977Z,16.50
2018-12-19T09:11:23.634Z,16.67
2018-12-19T09:13:57.027Z,16.53
2018-12-19T09:16:30.395Z,19.07
2018-12-19T09:19:10.859Z,18.87
2018-12-19T09:21:44.586Z,18.23
2018-12-19T09:24:18.462Z,17.97
2018-12-19T09:26:52.777Z,16.90
2018-12-19T09:29:26.341Z,16.37
2018-12-19T09:31:59.797Z,18.73
2018-12-19T09:34:33.135Z,42.40
2018-12-19T09:37:06.668Z,22.10
2018-12-19T09:39:40.365Z,20.73
2018-12-19T09:42:13.762Z,17.62
2018-12-19T09:44:47.067Z,16.73
2018-12-19T09:47:20.578Z,16.47
2018-12-19T09:49:54.126Z,17.07
2018-12-19T09:52:27.654Z,20.00
2018-12-19T09:55:01.094Z,16.23
2018-12-19T09:57:34.778Z,15.30
2018-12-19T10:00:14.375Z,19.93
2018-12-19T10:02:49.349Z,15.35
2018-12-19T10:05:23.345Z,16.00
2018-12-19T10:07:57.722Z,16.10
2018-12-19T10:10:31.079Z,17.90
2018-12-19T10:13:04.782Z,15.43
2018-12-19T10:15:38.420Z,16.13
2018-12-19T10:18:11.783Z,16.00
2018-12-19T10:20:45.264Z,17.63
2018-12-19T10:23:18.920Z,15.03
2018-12-19T10:26:13.382Z,16.10
2018-12-19T10:28:46.942Z,19.60
2018-12-19T10:31:20.383Z,18.97
2018-12-19T10:33:54.052Z,16.43
2018-12-19T10:36:33.425Z,15.77
2018-12-19T10:39:15.861Z,17.92
2018-12-19T10:41:49.316Z,14.37
2018-12-19T10:44:23.127Z,17.27
2018-12-19T10:46:56.601Z,16.73
2018-12-19T10:49:30.052Z,14.80
2018-12-19T10:52:03.538Z,16.07
2018-12-19T10:54:37.290Z,14.00
2018-12-19T10:57:10.830Z,14.35
2018-12-19T10:59:44.275Z,16.20
2018-12-19T11:02:17.952Z,14.00
2018-12-19T11:04:51.449Z,14.28
2018-12-19T11:07:25.242Z,14.38
2018-12-19T11:09:58.785Z,14.47
2018-12-19T11:12:32.150Z,15.73
2018-12-19T11:15:09.311Z,15.23
2018-12-19T11:17:42.621Z,15.47
2018-12-19T11:20:16.207Z,14.03
2018-12-19T11:22:49.478Z,15.30
2018-12-19T11:25:23.069Z,14.90
2018-12-19T11:27:56.575Z,17.53
2018-12-19T11:30:30.013Z,13.78
2018-12-19T11:33:03.632Z,15.98
2018-12-19T11:35:37.004Z,18.33
2018-12-19T11:38:10.810Z,14.95
2018-12-19T11:40:44.379Z,14.10
2018-12-19T11:43:17.908Z,16.27
2018-12-19T11:45:51.411Z,15.17
2018-12-19T11:48:24.922Z,16.12
2018-12-19T11:50:58.445Z,14.60
2018-12-19T11:53:31.930Z,14.63
2018-12-19T11:56:05.453Z,14.00
2018-12-19T11:58:39.135Z,15.65
2018-12-19T12:01:12.954Z,16.43
2018-12-19T12:03:46.514Z,16.05
2018-12-19T12:06:21.968Z,17.53
2018-12-19T12:08:55.405Z,16.73
2018-12-19T12:11:35.990Z,16.17
2018-12-19T12:14:09.698Z,16.37
2018-12-19T12:16:43.310Z,16.17
2018-12-19T12:19:16.737Z,18.40
2018-12-19T12:21:50.185Z,20.65
2018-12-19T12:24:23.442Z,18.50
2018-12-19T12:26:56.757Z,21.73
2018-12-19T12:29:30.093Z,20.48
2018-12-19T12:32:03.573Z,19.15
2018-12-19T12:34:36.911Z,18.93
2018-12-19T12:37:10.698Z,20.55
2018-12-19T12:39:44.207Z,19.93
2018-12-19T12:42:17.538Z,21.33
2018-12-19T12:44:51.110Z,19.32
2018-12-19T12:47:24.736Z,19.47
2018-12-19T12:49:58.277Z,19.13
2018-12-19T12:52:31.597Z,22.65
2018-12-19T12:55:05.210Z,21.40
2018-12-19T12:57:38.609Z,20.90
2018-12-19T13:00:12.218Z,24.57
2018-12-19T13:02:45.753Z,21.23
2018-12-19T13:05:21.367Z,20.07
2018-12-19T13:07:54.918Z,20.33
2018-12-19T13:10:28.313Z,18.15
2018-12-19T13:13:01.854Z,21.30
2018-12-19T13:15:40.570Z,22.50
2018-12-19T13:18:14.760Z,20.20
2018-12-19T13:20:48.358Z,22.17
2018-12-19T13:23:22.620Z,17.37
2018-12-19T13:25:56.076Z,19.90
2018-12-19T13:28:29.629Z,23.25
2018-12-19T13:31:03.053Z,19.83
2018-12-19T13:33:36.558Z,24.97
2018-12-19T13:36:10.119Z,25.82
2018-12-19T13:38:44.936Z,22.55
2018-12-19T13:41:18.321Z,19.07
2018-12-19T13:43:51.787Z,26.20
2018-12-19T13:46:25.254Z,20.37
2018-12-19T13:48:58.820Z,23.62
2018-12-19T13:51:32.446Z,21.20
2018-12-19T13:54:05.953Z,23.85
2018-12-19T13:56:39.293Z,22.62
2018-12-19T13:59:12.786Z,22.35
2018-12-19T14:01:46.501Z,23.35
2018-12-19T14:04:20.066Z,20.68
2018-12-19T14:06:53.478Z,24.40
2018-12-19T14:09:26.818Z,22.50
2018-12-19T14:12:00.222Z,20.88
2018-12-19T14:14:33.631Z,24.72
2018-12-19T14:17:06.969Z,23.87
2018-12-19T14:19:40.343Z,23.45
2018-12-19T14:22:13.876Z,26.97
2018-12-19T14:24:47.541Z,24.27
2018-12-19T14:27:21.052Z,24.87
2018-12-19T14:29:54.604Z,27.75
2018-12-19T14:32:28.310Z,22.93
2018-12-19T14:35:01.891Z,24.12
2018-12-19T14:37:35.421Z,23.83
2018-12-19T14:40:08.981Z,20.82
2018-12-19T14:42:43.569Z,22.52
2018-12-19T14:45:17.194Z,25.43
2018-12-19T14:47:50.759Z,28.12
2018-12-19T14:50:24.282Z,25.05
2018-12-19T14:52:57.769Z,25.17
2018-12-19T14:55:31.171Z,25.60
2018-12-19T14:58:04.819Z,24.57
2018-12-19T15:00:38.362Z,24.98
2018-12-19T15:03:11.705Z,25.17
2018-12-19T15:05:45.102Z,24.77
2018-12-19T15:08:18.914Z,25.60
2018-12-19T15:10:52.443Z,22.48
2018-12-19T15:13:26.163Z,23.65
2018-12-19T15:16:00.882Z,26.75
2018-12-19T15:18:34.547Z,25.05
2018-12-19T15:21:08.279Z,26.57
2018-12-19T15:23:41.622Z,24.50
2018-12-19T15:26:15.037Z,23.95
2018-12-19T15:28:48.745Z,20.43
2018-12-19T15:31:22.093Z,22.82
2018-12-19T15:33:55.505Z,21.68
2018-12-19T15:36:29.193Z,23.10
2018-12-19T15:39:04.463Z,27.22
2018-12-19T15:41:39.077Z,23.65
2018-12-19T15:44:12.563Z,25.72
2018-12-19T15:46:46.008Z,24.10
2018-12-19T15:49:19.697Z,22.95
2018-12-19T15:51:53.153Z,21.80
2018-12-19T15:54:26.734Z,25.43
2018-12-19T15:57:00.277Z,29.27
2018-12-19T15:59:33.783Z,22.00
2018-12-19T16:02:07.291Z,21.17
2018-12-19T16:04:40.828Z,22.62
2018-12-19T16:07:15.442Z,22.90
2018-12-19T16:09:49.044Z,21.73
2018-12-19T16:12:22.593Z,20.35
2018-12-19T16:14:55.874Z,20.10
2018-12-19T16:17:29.362Z,25.27
2018-12-19T16:20:03.207Z,20.00
2018-12-19T16:22:36.655Z,22.50
2018-12-19T16:25:10.052Z,24.27
2018-12-19T16:27:43.448Z,25.80
2018-12-19T16:30:16.773Z,20.82
2018-12-19T16:32:50.274Z,22.55
2018-12-19T16:35:25.074Z,27.02
2018-12-19T16:37:58.682Z,24.07
2018-12-19T16:40:32.288Z,20.27
2018-12-19T16:43:05.900Z,21.77
2018-12-19T16:45:39.462Z,24.25
2018-12-19T16:48:13.422Z,21.15
2018-12-19T16:50:47.270Z,19.10
2018-12-19T16:53:20.788Z,20.32
2018-12-19T16:55:54.166Z,20.50
2018-12-19T16:58:27.582Z,21.35
2018-12-19T17:01:01.069Z,23.07
2018-12-19T17:03:34.942Z,22.22
2018-12-19T17:06:08.689Z,23.67
2018-12-19T17:08:42.410Z,21.20
2018-12-19T17:11:15.921Z,19.42
2018-12-19T17:13:49.447Z,20.30
2018-12-19T17:16:22.797Z,20.20
2018-12-19T17:18:56.634Z,22.90
2018-12-19T17:21:30.886Z,18.70
2018-12-19T17:24:04.521Z,19.55
2018-12-19T17:26:37.949Z,20.17
2018-12-19T17:29:11.209Z,17.10
2018-12-19T17:31:44.557Z,19.70
2018-12-19T17:34:18.292Z,20.68
2018-12-19T17:36:51.723Z,19.00
2018-12-19T17:39:25.047Z,18.95
2018-12-19T17:42:01.022Z,18.57
2018-12-19T17:44:35.364Z,21.75
2018-12-19T17:47:08.854Z,22.45
2018-12-19T17:49:42.233Z,22.60
2018-12-19T17:52:15.798Z,22.60
2018-12-19T17:54:50.584Z,22.15
2018-12-19T17:57:24.022Z,20.27
2018-12-19T17:59:57.582Z,19.25
2018-12-19T18:02:31.089Z,20.80
2018-12-19T18:05:05.102Z,21.73
2018-12-19T18:07:38.769Z,23.45
2018-12-19T18:10:12.056Z,26.17
2018-12-19T18:12:45.478Z,23.40
2018-12-19T18:15:19.205Z,23.80
2018-12-19T18:17:52.680Z,20.90
2018-12-19T18:20:26.392Z,25.30
2018-12-19T18:22:59.905Z,24.47
2018-12-19T18:25:33.438Z,21.65
2018-12-19T18:28:06.859Z,22.82
2018-12-19T18:30:40.505Z,21.90
2018-12-19T18:33:14.172Z,21.25
2018-12-19T18:35:47.765Z,19.23
2018-12-19T18:38:22.521Z,19.10
2018-12-19T18:40:56.239Z,19.02
2018-12-19T18:43:29.846Z,20.88
2018-12-19T18:46:03.513Z,23.47
2018-12-19T18:48:36.994Z,20.17
2018-12-19T18:51:10.681Z,21.75
2018-12-19T18:53:44.228Z,20.57
2018-12-19T18:56:17.978Z,19.75
2018-12-19T18:58:51.545Z,20.32
2018-12-19T19:01:25.335Z,20.23
2018-12-19T19:03:58.956Z,18.97
2018-12-19T19:06:32.406Z,19.07
2018-12-19T19:09:06.105Z,21.15
2018-12-19T19:11:40.933Z,23.03
2018-12-19T19:14:14.777Z,24.95
2018-12-19T19:16:48.348Z,29.93
2018-12-19T19:19:21.940Z,32.60
2018-12-19T19:21:55.239Z,30.10
2018-12-19T19:24:28.846Z,22.83
2018-12-19T19:27:02.118Z,23.70
2018-12-19T19:29:35.609Z,21.17
2018-12-19T19:32:09.101Z,24.95
2018-12-19T19:34:42.388Z,25.72
2018-12-19T19:37:16.052Z,30.23
2018-12-19T19:39:49.586Z,25.88
2018-12-19T19:42:23.081Z,23.55
2018-12-19T19:44:56.627Z,24.60
2018-12-19T19:47:30.632Z,21.83
2018-12-19T19:50:04.348Z,26.70
2018-12-19T19:52:37.673Z,20.25
2018-12-19T19:55:11.390Z,19.57
2018-12-19T19:57:44.778Z,25.13
2018-12-19T20:00:23.034Z,22.13
2018-12-19T20:02:57.571Z,24.25
2018-12-19T20:05:31.267Z,21.62
2018-12-19T20:08:04.838Z,20.85
2018-12-19T20:10:38.276Z,21.57
2018-12-19T20:13:11.839Z,21.23
2018-12-19T20:15:45.582Z,20.95
2018-12-19T20:18:19.258Z,20.60
2018-12-19T20:20:52.558Z,25.50
2018-12-19T20:23:26.230Z,21.40
2018-12-19T20:25:59.821Z,23.10
2018-12-19T20:28:33.337Z,23.77
2018-12-19T20:31:06.884Z,22.10
2018-12-19T20:33:40.229Z,21.87
2018-12-19T20:36:13.542Z,22.40
2018-12-19T20:38:47.011Z,21.33
2018-12-19T20:41:20.538Z,21.80
2018-12-19T20:43:54.035Z,21.35
2018-12-19T20:46:27.501Z,20.12
2018-12-19T20:49:01.139Z,23.07
2018-12-19T20:51:34.483Z,18.67
2018-12-19T20:54:08.066Z,22.45
2018-12-19T20:56:41.613Z,20.47
2018-12-19T20:59:15.150Z,17.98
2018-12-19T21:01:48.555Z,19.32
2018-12-19T21:04:22.788Z,20.75
2018-12-19T21:06:56.339Z,20.52
2018-12-19T21:09:29.719Z,19.40
2018-12-19T21:12:03.391Z,19.65
2018-12-19T21:14:36.936Z,21.00
2018-12-19T21:17:16.987Z,18.42
2018-12-19T21:19:50.499Z,19.67
2018-12-19T21:22:24.147Z,17.95
2018-12-19T21:24:57.614Z,20.12
2018-12-19T21:27:38.173Z,20.80
2018-12-19T21:30:11.666Z,21.10
2018-12-19T21:32:45.167Z,21.65
2018-12-19T21:35:18.941Z,20.32
2018-12-19T21:37:52.309Z,17.70
2018-12-19T21:40:26.090Z,19.05
2018-12-19T21:42:59.694Z,20.97
2018-12-19T21:45:33.333Z,19.23
2018-12-19T21:48:07.005Z,18.57
2018-12-19T21:50:40.583Z,20.00
2018-12-19T21:53:14.196Z,18.02
2018-12-19T21:55:47.646Z,17.60
2018-12-19T21:58:21.074Z,18.50
2018-12-19T22:00:54.696Z,17.67
2018-12-19T22:03:28.167Z,19.95
2018-12-19T22:06:01.859Z,19.32
2018-12-19T22:08:35.329Z,19.20
2018-12-19T22:11:09.092Z,17.30
2018-12-19T22:13:42.709Z,19.87
2018-12-19T22:16:22.001Z,21.10
2018-12-19T22:18:57.574Z,18.70
2018-12-19T22:21:31.222Z,17.83
2018-12-19T22:24:04.837Z,21.45
2018-12-19T22:26:39.240Z,19.95
2018-12-19T22:29:12.900Z,17.70
2018-12-19T22:31:46.525Z,20.02
2018-12-19T22:34:19.989Z,19.10
2018-12-19T22:36:53.580Z,22.70
2018-12-19T22:39:27.214Z,17.90
2018-12-19T22:42:00.613Z,20.60
2018-12-19T22:44:33.973Z,17.75
2018-12-19T22:47:07.742Z,18.42
2018-12-19T22:49:41.271Z,18.25
2018-12-19T22:52:14.886Z,19.87
2018-12-19T22:54:48.402Z,19.65
2018-12-19T22:57:22.233Z,19.70
2018-12-19T22:59:55.765Z,17.77
2018-12-19T23:02:35.165Z,19.82
2018-12-19T23:05:08.718Z,18.92
2018-12-19T23:07:42.235Z,19.50
2018-12-19T23:10:15.789Z,19.92
2018-12-19T23:12:49.367Z,18.85
2018-12-19T23:15:24.346Z,20.40
2018-12-19T23:18:10.169Z,21.33
2018-12-19T23:20:50.061Z,19.48
2018-12-19T23:23:29.780Z,21.77
2018-12-19T23:26:09.510Z,20.40
2018-12-19T23:28:45.226Z,19.45
2018-12-19T23:31:18.859Z,20.12
2018-12-19T23:33:52.289Z,18.50
2018-12-19T23:36:25.997Z,20.30
2018-12-19T23:38:59.461Z,19.55
2018-12-19T23:41:33.043Z,18.73
2018-12-19T23:44:06.914Z,18.82
2018-12-19T23:46:40.418Z,18.62
2018-12-19T23:49:13.997Z,19.77
2018-12-19T23:51:47.465Z,19.20
2018-12-19T23:54:21.028Z,19.35
2018-12-19T23:56:54.594Z,21.57
2018-12-19T23:59:28.189Z,19.07
